createdAt,value
2022-08-05T10:14:03.908Z,4.10
2022-08-05T10:18:49.203Z,4.00
2022-08-05T10:28:16.880Z,3.80
2022-08-05T10:33:05.140Z,4.30
2022-08-05T10:37:40.220Z,3.70
2022-08-05T10:42:32.604Z,3.50
2022-08-05T10:47:25.759Z,3.80
2022-08-05T10:52:05.560Z,3.90
2022-08-05T10:56:43.175Z,3.60
2022-08-05T11:01:55.290Z,4.10
2022-08-05T11:06:43.848Z,3.80
2022-08-05T11:11:24.808Z,3.70
2022-08-05T11:16:18.402Z,4.20
2022-08-05T11:21:12.287Z,4.00
2022-08-05T11:26:04.964Z,4.30
2022-08-05T11:30:47.849Z,4.80
2022-08-05T11:36:04.461Z,3.40
2022-08-05T11:40:27.705Z,3.50
2022-08-05T11:45:14.575Z,4.20
2022-08-05T11:50:10.251Z,3.60
2022-08-05T11:54:48.559Z,3.90
2022-08-05T11:59:31.654Z,3.80
2022-08-05T12:04:58.988Z,3.60
2022-08-05T12:09:24.593Z,3.30
2022-08-05T12:14:17.029Z,3.20
2022-08-05T12:18:53.123Z,5.60
2022-08-05T12:23:29.619Z,4.90
2022-08-05T12:27:33.035Z,3.90
2022-08-05T12:32:04.536Z,4.20
2022-08-05T12:36:53.989Z,4.10
2022-08-05T12:41:12.441Z,4.60
2022-08-05T12:45:49.847Z,5.10
2022-08-05T12:50:39.618Z,4.00
2022-08-05T12:55:22.286Z,3.40
2022-08-05T13:00:08.798Z,3.50
2022-08-05T13:09:28.358Z,3.30
2022-08-05T13:14:04.637Z,2.80
2022-08-05T13:18:42.127Z,2.80
2022-08-05T13:23:16.310Z,3.20
2022-08-05T13:28:04.706Z,3.30
2022-08-05T13:32:46.698Z,3.40
2022-08-05T13:37:27.171Z,3.10
2022-08-05T13:42:02.606Z,3.10
2022-08-05T13:46:30.726Z,3.90
2022-08-05T13:51:01.787Z,3.00
2022-08-05T13:55:40.732Z,3.10
2022-08-05T14:00:09.008Z,3.00
2022-08-05T14:04:50.102Z,3.50
2022-08-05T14:09:37.121Z,3.30
2022-08-05T14:14:33.647Z,3.50
2022-08-05T14:19:20.452Z,3.40
2022-08-05T14:23:48.096Z,3.40
2022-08-05T14:28:35.077Z,2.60
2022-08-05T14:32:43.355Z,6.80
2022-08-05T14:37:01.048Z,11.30
2022-08-05T14:42:08.711Z,8.90
2022-08-05T14:46:41.753Z,8.50
2022-08-05T14:51:15.456Z,8.60
2022-08-05T14:56:02.805Z,6.60
2022-08-05T15:00:59.198Z,7.00
2022-08-05T15:06:07.857Z,5.00
2022-08-05T15:10:30.258Z,5.30
2022-08-05T15:15:54.536Z,4.90
2022-08-05T15:20:25.846Z,8.80
2022-08-05T15:24:48.757Z,5.90
2022-08-05T15:29:41.802Z,7.00
2022-08-05T15:34:31.653Z,5.50
2022-08-05T15:41:01.898Z,7.40
2022-08-05T15:44:12.825Z,6.30
2022-08-05T15:48:53.097Z,5.90
2022-08-05T15:53:22.774Z,4.90
2022-08-05T15:57:54.033Z,5.20
2022-08-05T16:02:30.456Z,5.10
2022-08-05T16:07:04.533Z,4.70
2022-08-05T16:11:39.880Z,4.90
2022-08-05T16:16:26.928Z,4.70
2022-08-05T16:20:59.555Z,4.30
2022-08-05T16:25:37.332Z,4.70
2022-08-05T16:30:26.128Z,4.40
2022-08-05T16:40:07.104Z,4.70
2022-08-05T16:44:32.319Z,4.90
2022-08-05T16:49:05.928Z,5.10
2022-08-05T16:54:04.086Z,4.90
2022-08-05T16:58:28.423Z,5.50
2022-08-05T17:03:03.545Z,5.70
2022-08-05T17:07:43.614Z,6.10
2022-08-05T17:12:32.318Z,6.90
2022-08-05T17:17:05.931Z,6.80
2022-08-05T17:21:39.779Z,7.20
2022-08-05T17:26:07.612Z,5.90
2022-08-05T17:30:50.756Z,5.80
2022-08-05T17:35:25.364Z,5.60
2022-08-05T17:40:05.897Z,6.00
2022-08-05T17:44:50.312Z,6.00
2022-08-05T17:49:23.831Z,6.50
2022-08-05T17:54:00.974Z,3.60
2022-08-05T17:58:32.342Z,3.50
2022-08-05T18:03:06.167Z,3.30
2022-08-05T18:07:40.933Z,3.60
2022-08-05T18:18:09.213Z,4.40
2022-08-05T18:22:46.086Z,7.40
2022-08-05T18:27:24.130Z,6.40
2022-08-05T18:31:57.506Z,5.50
2022-08-05T18:36:31.212Z,5.20
2022-08-05T18:41:58.533Z,5.70
2022-08-05T18:45:58.935Z,6.60
2022-08-05T18:50:46.773Z,6.60
2022-08-05T18:55:29.994Z,6.90
2022-08-05T19:00:27.033Z,6.80
2022-08-05T19:06:05.775Z,7.30
2022-08-05T19:18:39.790Z,7.60
2022-08-05T19:27:30.215Z,7.80
2022-08-05T19:36:24.512Z,7.20
2022-08-05T19:40:59.217Z,6.40
2022-08-05T19:45:54.618Z,6.50
2022-08-05T19:50:33.510Z,5.50
2022-08-05T19:59:54.711Z,5.30
2022-08-05T20:04:23.144Z,5.40
2022-08-05T20:09:00.798Z,6.00
2022-08-05T20:13:58.804Z,5.50
2022-08-05T20:18:36.022Z,5.00
2022-08-05T20:23:04.822Z,5.00
2022-08-05T20:27:42.126Z,5.70
2022-08-05T20:40:53.536Z,6.10
2022-08-05T20:45:56.562Z,6.50
2022-08-05T20:54:59.441Z,6.90
2022-08-05T21:29:48.261Z,5.60
2022-08-05T21:38:40.665Z,4.50
2022-08-05T21:56:28.224Z,3.40
2022-08-05T22:05:48.380Z,3.00
2022-08-05T23:40:07.863Z,2.90
